createdAt,value
2017-10-23T00:04:06.818Z,11.80
2017-10-23T00:06:35.870Z,11.80
2017-10-23T00:09:04.150Z,11.80
2017-10-23T00:11:33.246Z,11.90
2017-10-23T00:16:31.418Z,11.90
2017-10-23T00:18:59.734Z,11.90
2017-10-23T00:21:28.036Z,11.80
2017-10-23T00:23:56.315Z,11.90
2017-10-23T00:26:24.653Z,11.90
2017-10-23T00:28:54.062Z,11.90
2017-10-23T00:31:22.339Z,12.00
2017-10-23T00:33:50.664Z,12.00
2017-10-23T00:38:48.838Z,11.90
2017-10-23T00:41:17.174Z,11.90
2017-10-23T00:43:46.270Z,11.90
2017-10-23T00:46:15.683Z,12.00
2017-10-23T00:48:44.790Z,11.90
2017-10-23T00:51:13.071Z,11.90
2017-10-23T00:53:42.114Z,11.90
2017-10-23T00:56:11.207Z,11.90
2017-10-23T01:01:09.390Z,12.00
2017-10-23T01:03:37.711Z,12.00
2017-10-23T01:06:05.989Z,12.00
2017-10-23T01:08:35.774Z,12.00
2017-10-23T01:11:04.134Z,12.00
2017-10-23T01:13:32.402Z,12.10
2017-10-23T01:16:01.439Z,12.10
2017-10-23T01:18:29.783Z,12.20
2017-10-23T01:20:58.834Z,12.20
2017-10-23T01:25:56.654Z,12.20
2017-10-23T01:28:25.689Z,12.20
2017-10-23T01:30:54.733Z,12.20
2017-10-23T01:33:23.092Z,12.10
2017-10-23T01:35:51.370Z,12.00
2017-10-23T01:38:19.647Z,12.00
2017-10-23T01:40:49.139Z,11.90
2017-10-23T01:43:18.178Z,11.90
2017-10-23T01:45:47.282Z,11.90
2017-10-23T01:48:16.375Z,11.80
2017-10-23T01:50:44.648Z,11.80
2017-10-23T01:53:14.061Z,11.80
2017-10-23T01:55:42.404Z,11.80
2017-10-23T01:58:10.684Z,11.80
2017-10-23T02:00:38.957Z,11.80
2017-10-23T02:03:07.282Z,11.80
2017-10-23T02:05:36.322Z,11.80
2017-10-23T02:08:05.368Z,11.80
2017-10-23T02:10:33.687Z,11.70
2017-10-23T02:13:02.358Z,11.70
2017-10-23T02:15:30.639Z,11.80
2017-10-23T02:17:58.970Z,11.90
2017-10-23T02:20:27.247Z,11.80
2017-10-23T02:22:55.527Z,11.80
2017-10-23T02:25:23.842Z,11.80
2017-10-23T02:27:52.123Z,11.70
2017-10-23T02:30:21.172Z,11.80
2017-10-23T02:32:49.527Z,11.80
2017-10-23T02:35:17.803Z,11.80
2017-10-23T02:37:46.097Z,11.80
2017-10-23T02:40:14.420Z,11.80
2017-10-23T02:42:42.702Z,11.80
2017-10-23T02:45:10.975Z,11.90
2017-10-23T02:47:39.294Z,12.00
2017-10-23T02:50:08.339Z,12.00
2017-10-23T02:52:36.637Z,12.00
2017-10-23T02:55:05.002Z,12.00
2017-10-23T02:57:34.406Z,12.00
2017-10-23T03:00:03.083Z,12.00
2017-10-23T03:02:31.408Z,12.00
2017-10-23T03:05:00.823Z,12.00
2017-10-23T03:07:29.098Z,12.10
2017-10-23T03:09:57.464Z,12.00
2017-10-23T03:12:25.739Z,12.10
2017-10-23T03:14:54.016Z,12.20
2017-10-23T03:17:22.346Z,12.20
2017-10-23T03:19:51.767Z,12.10
2017-10-23T03:22:20.043Z,12.10
2017-10-23T03:24:48.361Z,12.20
2017-10-23T03:27:16.631Z,12.20
2017-10-23T03:32:15.223Z,12.00
2017-10-23T03:34:43.488Z,12.00
2017-10-23T03:37:12.524Z,12.00
2017-10-23T03:39:42.355Z,12.10
2017-10-23T03:42:10.630Z,12.10
2017-10-23T03:47:08.850Z,11.90
2017-10-23T03:49:37.211Z,11.80
2017-10-23T03:52:05.491Z,11.90
2017-10-23T03:54:33.810Z,12.00
2017-10-23T03:57:02.096Z,12.10
2017-10-23T03:59:30.369Z,12.10
2017-10-23T04:01:58.694Z,12.10
2017-10-23T04:04:28.110Z,12.10
2017-10-23T04:06:56.381Z,12.10
2017-10-23T04:11:54.635Z,12.00
2017-10-23T04:14:23.674Z,12.00
2017-10-23T04:16:52.396Z,12.00
2017-10-23T04:19:20.673Z,12.00
2017-10-23T04:24:19.298Z,12.00
2017-10-23T04:26:48.709Z,12.00
2017-10-23T04:29:16.984Z,12.00
2017-10-23T04:31:45.314Z,12.00
2017-10-23T04:34:13.607Z,12.00
2017-10-23T04:36:41.883Z,11.90
2017-10-23T04:39:10.615Z,11.90
2017-10-23T04:41:39.662Z,11.90
2017-10-23T04:44:07.942Z,11.90
2017-10-23T04:46:36.287Z,12.00
2017-10-23T04:51:34.119Z,12.00
2017-10-23T04:54:02.835Z,12.00
2017-10-23T04:56:31.879Z,12.00
2017-10-23T04:59:00.159Z,11.90
2017-10-23T05:01:29.251Z,12.00
2017-10-23T05:03:57.527Z,12.00
2017-10-23T05:06:25.815Z,12.00
2017-10-23T05:11:25.178Z,12.00
2017-10-23T05:13:53.464Z,12.00
2017-10-23T05:16:21.812Z,11.90
2017-10-23T05:18:50.100Z,11.90
2017-10-23T05:21:19.144Z,11.90
2017-10-23T05:23:47.458Z,12.00
2017-10-23T05:26:15.740Z,12.00
2017-10-23T05:28:44.027Z,12.10
2017-10-23T05:31:12.356Z,12.00
2017-10-23T05:33:40.631Z,11.90
2017-10-23T05:36:08.911Z,12.00
2017-10-23T05:38:38.003Z,12.00
2017-10-23T05:43:35.950Z,12.00
2017-10-23T05:48:34.926Z,12.00
2017-10-23T05:51:03.207Z,11.90
2017-10-23T05:53:32.341Z,11.80
2017-10-23T05:56:00.626Z,12.00
2017-10-23T05:58:29.699Z,11.90
2017-10-23T06:00:58.046Z,12.00
2017-10-23T06:03:27.094Z,11.90
2017-10-23T06:05:55.380Z,11.90
2017-10-23T06:08:23.707Z,12.00
2017-10-23T06:10:51.983Z,11.90
2017-10-23T06:15:50.228Z,12.00
2017-10-23T06:23:17.983Z,12.00
2017-10-23T06:25:47.907Z,12.00
2017-10-23T06:28:16.188Z,12.00
2017-10-23T06:30:44.532Z,11.90
2017-10-23T06:35:44.421Z,12.00
2017-10-23T06:38:15.040Z,12.00
2017-10-23T06:40:43.316Z,12.10
2017-10-23T06:43:11.624Z,12.10
2017-10-23T06:45:39.932Z,12.10
2017-10-23T06:48:08.219Z,12.20
2017-10-23T06:50:36.947Z,12.20
2017-10-23T06:53:05.984Z,12.10
2017-10-23T06:55:34.268Z,12.00
2017-10-23T06:58:02.603Z,12.00
2017-10-23T07:00:31.280Z,12.00
2017-10-23T07:02:59.558Z,12.20
2017-10-23T07:05:28.271Z,12.20
2017-10-23T07:07:57.683Z,12.20
2017-10-23T07:10:26.368Z,12.30
2017-10-23T07:12:54.764Z,12.30
2017-10-23T07:15:23.035Z,12.20
2017-10-23T07:17:51.311Z,12.10
2017-10-23T07:20:19.639Z,12.00
2017-10-23T07:22:48.678Z,12.00
2017-10-23T07:25:16.956Z,12.10
2017-10-23T07:27:45.266Z,12.10
2017-10-23T07:30:13.547Z,12.30
2017-10-23T07:32:41.822Z,12.30
2017-10-23T07:35:11.658Z,12.30
2017-10-23T07:37:41.070Z,12.40
2017-10-23T07:40:09.348Z,12.40
2017-10-23T07:42:37.670Z,12.30
2017-10-23T07:45:05.946Z,12.40
2017-10-23T07:50:03.803Z,12.40
2017-10-23T07:52:32.074Z,12.40
2017-10-23T07:55:00.355Z,12.40
2017-10-23T07:57:28.698Z,12.50
2017-10-23T07:59:56.970Z,12.60
2017-10-23T08:02:26.412Z,12.60
2017-10-23T08:04:54.744Z,12.50
2017-10-23T08:07:23.027Z,12.50
2017-10-23T08:09:51.303Z,12.60
2017-10-23T08:12:19.641Z,12.70
2017-10-23T08:14:47.919Z,12.70
2017-10-23T08:17:16.203Z,12.80
2017-10-23T08:19:44.926Z,12.90
2017-10-23T08:22:13.203Z,13.00
2017-10-23T08:24:41.494Z,13.30
2017-10-23T08:27:10.579Z,13.60
2017-10-23T08:32:08.384Z,13.80
2017-10-23T08:34:37.851Z,13.80
2017-10-23T08:37:06.516Z,13.90
2017-10-23T08:39:34.799Z,14.00
2017-10-23T08:42:03.127Z,14.30
2017-10-23T08:44:31.408Z,14.50
2017-10-23T08:47:00.461Z,14.60
2017-10-23T08:49:29.541Z,14.70
2017-10-23T08:54:27.321Z,14.90
2017-10-23T08:56:55.639Z,14.90
2017-10-23T08:59:23.915Z,15.00
2017-10-23T09:01:52.191Z,14.90
2017-10-23T09:04:20.907Z,14.80
2017-10-23T09:06:49.186Z,14.90
2017-10-23T09:09:18.231Z,15.00
2017-10-23T09:11:47.308Z,15.00
2017-10-23T09:14:15.586Z,15.10
2017-10-23T09:16:44.255Z,15.10
2017-10-23T09:19:12.574Z,15.10
2017-10-23T09:21:40.863Z,15.10
2017-10-23T09:24:09.904Z,15.20
2017-10-23T09:26:38.229Z,15.20
2017-10-23T09:29:06.508Z,15.10
2017-10-23T09:31:34.791Z,15.10
2017-10-23T09:34:03.139Z,15.10
2017-10-23T09:36:31.415Z,14.90
2017-10-23T09:38:59.691Z,14.90
2017-10-23T09:41:28.777Z,14.80
2017-10-23T09:43:57.055Z,15.00
2017-10-23T09:46:25.342Z,14.90
2017-10-23T09:48:54.428Z,15.00
2017-10-23T09:51:23.099Z,15.10
2017-10-23T09:53:51.372Z,15.10
2017-10-23T09:56:19.683Z,15.00
2017-10-23T09:58:47.954Z,15.00
2017-10-23T10:01:16.235Z,14.90
2017-10-23T10:03:45.704Z,14.80
2017-10-23T10:09:15.343Z,14.80
2017-10-23T10:11:44.390Z,14.80
2017-10-23T10:14:12.662Z,14.80
2017-10-23T10:19:10.535Z,14.80
2017-10-23T10:21:39.584Z,14.90
2017-10-23T10:24:07.902Z,15.10
2017-10-23T10:26:36.952Z,15.30
2017-10-23T10:29:05.999Z,15.40
2017-10-23T10:31:35.093Z,15.40
2017-10-23T10:34:04.511Z,15.40
2017-10-23T10:36:33.191Z,15.50
2017-10-23T10:39:01.538Z,15.50
2017-10-23T10:41:31.324Z,15.60
2017-10-23T10:43:59.607Z,15.80
2017-10-23T10:46:27.943Z,15.80
2017-10-23T10:48:56.211Z,15.80
2017-10-23T10:51:24.498Z,15.80
2017-10-23T10:53:52.851Z,15.90
2017-10-23T10:56:21.138Z,15.90
2017-10-23T10:58:49.417Z,16.00
2017-10-23T11:01:19.260Z,15.90
2017-10-23T11:03:47.547Z,15.90
2017-10-23T11:06:15.831Z,15.80
2017-10-23T11:08:44.547Z,15.70
2017-10-23T11:13:42.334Z,15.40
2017-10-23T11:16:11.576Z,15.30
2017-10-23T11:18:40.987Z,15.30
2017-10-23T11:21:09.279Z,15.10
2017-10-23T11:23:37.608Z,15.00
2017-10-23T11:26:05.879Z,15.00
2017-10-23T11:28:34.232Z,15.00
2017-10-23T11:31:03.692Z,15.00
2017-10-23T11:33:31.966Z,15.00
2017-10-23T11:36:00.646Z,15.00
2017-10-23T11:38:28.971Z,15.10
2017-10-23T11:40:58.756Z,15.00
2017-10-23T11:43:27.431Z,15.00
2017-10-23T11:45:56.529Z,15.00
2017-10-23T11:48:25.207Z,15.00
2017-10-23T11:50:53.485Z,15.00
2017-10-23T11:53:22.587Z,15.00
2017-10-23T11:55:50.875Z,15.00
2017-10-23T12:00:49.096Z,15.10
2017-10-23T12:03:17.368Z,15.00
2017-10-23T12:05:45.648Z,14.90
2017-10-23T12:08:13.992Z,14.90
2017-10-23T12:10:42.277Z,14.80
2017-10-23T12:13:10.546Z,14.80
2017-10-23T12:15:38.861Z,14.70
2017-10-23T12:18:08.276Z,14.70
2017-10-23T12:20:36.556Z,14.70
2017-10-23T12:25:34.806Z,14.70
2017-10-23T12:30:32.627Z,14.80
2017-10-23T12:33:01.673Z,14.90
2017-10-23T12:35:30.714Z,15.00
2017-10-23T12:37:59.071Z,15.00
2017-10-23T12:40:27.353Z,14.90
2017-10-23T12:42:55.630Z,14.90
2017-10-23T12:45:25.107Z,15.00
2017-10-23T12:47:53.375Z,14.90
2017-10-23T12:50:21.651Z,14.90
2017-10-23T12:52:49.986Z,14.80
2017-10-23T12:55:18.264Z,14.80
2017-10-23T12:57:46.544Z,14.90
2017-10-23T13:00:16.395Z,14.90
2017-10-23T13:02:44.671Z,15.00
2017-10-23T13:05:13.712Z,15.20
2017-10-23T13:07:42.059Z,15.20
2017-10-23T13:12:40.251Z,15.20
2017-10-23T13:15:08.577Z,15.20
2017-10-23T13:17:36.855Z,15.10
2017-10-23T13:20:05.141Z,15.10
2017-10-23T13:22:34.906Z,15.20
2017-10-23T13:25:03.215Z,15.30
2017-10-23T13:27:31.490Z,15.30
2017-10-23T13:29:59.814Z,15.30
2017-10-23T13:32:29.239Z,15.30
2017-10-23T13:34:57.916Z,15.20
2017-10-23T13:37:26.831Z,15.30
2017-10-23T13:39:55.886Z,15.40
2017-10-23T13:42:24.179Z,15.50
2017-10-23T13:44:52.524Z,15.60
2017-10-23T13:47:20.803Z,15.60
2017-10-23T13:49:49.086Z,15.50
2017-10-23T13:52:18.199Z,15.50
2017-10-23T13:54:46.484Z,15.50
2017-10-23T13:57:15.531Z,15.60
2017-10-23T13:59:44.247Z,15.60
2017-10-23T14:02:12.526Z,15.60
2017-10-23T14:07:10.762Z,15.70
2017-10-23T14:09:39.800Z,15.70
2017-10-23T14:12:08.851Z,15.70
2017-10-23T14:14:37.178Z,15.70
2017-10-23T14:17:05.462Z,15.80
2017-10-23T14:19:33.748Z,15.80
2017-10-23T14:22:02.083Z,15.70
2017-10-23T14:24:30.359Z,15.80
2017-10-23T14:26:58.649Z,15.70
2017-10-23T14:31:56.764Z,15.80
2017-10-23T14:34:25.798Z,15.80
2017-10-23T14:36:54.130Z,15.90
2017-10-23T14:39:22.419Z,15.80
2017-10-23T14:41:50.712Z,15.80
2017-10-23T14:44:19.050Z,15.80
2017-10-23T14:46:48.466Z,15.80
2017-10-23T14:49:16.753Z,15.80
2017-10-23T14:51:45.099Z,15.80
2017-10-23T14:54:13.375Z,15.80
2017-10-23T14:56:43.535Z,15.80
2017-10-23T14:59:11.855Z,15.80
2017-10-23T15:01:41.129Z,15.90
2017-10-23T15:04:09.815Z,15.80
2017-10-23T15:06:38.128Z,15.90
2017-10-23T15:09:06.406Z,15.90
2017-10-23T15:11:35.453Z,16.00
2017-10-23T15:14:03.767Z,15.90
2017-10-23T15:16:32.051Z,15.90
2017-10-23T15:19:00.326Z,15.80
2017-10-23T15:21:29.422Z,15.80
2017-10-23T15:23:58.104Z,15.80
2017-10-23T15:26:26.370Z,15.70
2017-10-23T15:31:25.350Z,15.60
2017-10-23T15:33:53.630Z,15.60
2017-10-23T15:36:22.742Z,15.60
2017-10-23T15:41:22.054Z,15.50
2017-10-23T15:43:51.496Z,15.50
2017-10-23T15:46:19.766Z,15.50
2017-10-23T15:48:48.078Z,15.50
2017-10-23T15:51:16.353Z,15.50
2017-10-23T15:53:45.407Z,15.50
2017-10-23T15:56:13.734Z,15.40
2017-10-23T15:58:42.014Z,15.40
2017-10-23T16:01:11.795Z,15.40
2017-10-23T16:03:40.118Z,15.40
2017-10-23T16:08:38.287Z,15.30
2017-10-23T16:11:06.642Z,15.30
2017-10-23T16:13:34.950Z,15.30
2017-10-23T16:16:03.222Z,15.30
2017-10-23T16:18:31.546Z,15.30
2017-10-23T16:21:00.959Z,15.30
2017-10-23T16:23:29.230Z,15.40
2017-10-23T16:25:57.559Z,15.30
2017-10-23T16:28:25.830Z,15.30
2017-10-23T16:30:55.626Z,15.30
2017-10-23T16:33:24.853Z,15.30
2017-10-23T16:35:54.292Z,15.30
2017-10-23T16:38:23.335Z,15.30
2017-10-23T16:40:51.649Z,15.30
2017-10-23T16:43:19.923Z,15.20
2017-10-23T16:45:48.202Z,15.20
2017-10-23T16:48:18.200Z,15.30
2017-10-23T16:50:46.475Z,15.30
2017-10-23T16:53:14.756Z,15.30
2017-10-23T16:55:44.198Z,15.30
2017-10-23T16:58:13.239Z,15.30
2017-10-23T17:00:41.552Z,15.20
2017-10-23T17:03:10.652Z,15.20
2017-10-23T17:05:38.927Z,15.20
2017-10-23T17:08:07.972Z,15.20
2017-10-23T17:13:06.215Z,15.10
2017-10-23T17:15:35.251Z,15.00
2017-10-23T17:18:04.517Z,15.00
2017-10-23T17:20:33.191Z,15.00
2017-10-23T17:23:01.472Z,15.00
2017-10-23T17:25:29.800Z,14.90
2017-10-23T17:27:58.083Z,14.90
2017-10-23T17:30:27.882Z,14.90
2017-10-23T17:32:56.216Z,14.90
2017-10-23T17:35:24.506Z,14.90
2017-10-23T17:37:52.784Z,14.80
2017-10-23T17:40:21.087Z,14.80
2017-10-23T17:42:49.367Z,14.80
2017-10-23T17:45:17.639Z,14.80
2017-10-23T17:47:47.087Z,14.70
2017-10-23T17:50:15.359Z,14.70
2017-10-23T17:52:43.634Z,14.60
2017-10-23T17:55:12.727Z,14.60
2017-10-23T17:57:41.018Z,14.50
2017-10-23T18:00:09.302Z,14.50
2017-10-23T18:02:37.618Z,14.40
2017-10-23T18:05:07.408Z,14.40
2017-10-23T18:10:05.642Z,14.30
2017-10-23T18:15:04.994Z,14.40
2017-10-23T18:17:34.778Z,14.30
2017-10-23T18:20:03.059Z,14.20
2017-10-23T18:22:32.142Z,14.10
2017-10-23T18:25:00.425Z,14.10
2017-10-23T18:27:28.710Z,14.10
2017-10-23T18:29:57.040Z,14.10
2017-10-23T18:32:25.314Z,14.10
2017-10-23T18:34:53.601Z,14.10
2017-10-23T18:37:21.932Z,14.20
2017-10-23T18:39:50.218Z,14.20
2017-10-23T18:42:20.010Z,14.20
2017-10-23T18:44:48.335Z,14.20
2017-10-23T18:47:17.378Z,14.30
2017-10-23T18:49:45.649Z,14.30
2017-10-23T18:52:13.971Z,14.30
2017-10-23T18:54:43.755Z,14.40
2017-10-23T18:57:12.039Z,14.40
2017-10-23T18:59:40.364Z,14.40
2017-10-23T19:02:08.644Z,14.40
2017-10-23T19:04:36.918Z,14.40
2017-10-23T19:07:05.242Z,14.40
2017-10-23T19:09:34.671Z,14.40
2017-10-23T19:12:02.950Z,14.40
2017-10-23T19:14:31.277Z,14.40
2017-10-23T19:16:59.552Z,14.40
2017-10-23T19:19:28.596Z,14.40
2017-10-23T19:21:56.947Z,14.40
2017-10-23T19:26:55.118Z,14.30
2017-10-23T19:31:53.721Z,14.40
2017-10-23T19:34:21.995Z,14.30
2017-10-23T19:36:50.327Z,14.40
2017-10-23T19:39:19.381Z,14.50
2017-10-23T19:41:48.440Z,14.50
2017-10-23T19:44:16.766Z,14.50
2017-10-23T19:46:46.194Z,14.60
2017-10-23T19:49:14.470Z,14.60
2017-10-23T19:51:42.794Z,14.60
2017-10-23T19:54:11.071Z,14.60
2017-10-23T19:56:40.863Z,14.60
2017-10-23T19:59:09.175Z,14.60
2017-10-23T20:01:38.590Z,14.60
2017-10-23T20:06:36.815Z,14.60
2017-10-23T20:09:05.112Z,14.60
2017-10-23T20:11:33.396Z,14.60
2017-10-23T20:14:01.717Z,14.60
2017-10-23T20:16:31.140Z,14.70
2017-10-23T20:18:59.823Z,14.70
2017-10-23T20:21:28.171Z,14.60
2017-10-23T20:23:56.453Z,14.60
2017-10-23T20:26:24.735Z,14.70
2017-10-23T20:28:53.980Z,14.70
2017-10-23T20:31:22.260Z,14.70
2017-10-23T20:33:50.549Z,14.60
2017-10-23T20:36:18.914Z,14.70
2017-10-23T20:38:47.199Z,14.70
2017-10-23T20:41:15.478Z,14.70
2017-10-23T20:43:44.579Z,14.70
2017-10-23T20:46:12.866Z,14.70
2017-10-23T20:48:41.913Z,14.70
2017-10-23T20:53:40.906Z,14.70
2017-10-23T20:56:09.193Z,14.70
2017-10-23T20:58:37.539Z,14.70
2017-10-23T21:01:07.327Z,14.70
2017-10-23T21:03:35.606Z,14.70
2017-10-23T21:06:03.933Z,14.70
2017-10-23T21:08:32.227Z,14.70
2017-10-23T21:11:00.518Z,14.70
2017-10-23T21:13:28.871Z,14.70
2017-10-23T21:15:58.288Z,14.70
2017-10-23T21:18:26.566Z,14.70
2017-10-23T21:20:54.965Z,14.70
2017-10-23T21:23:23.258Z,14.70
2017-10-23T21:25:51.535Z,14.70
2017-10-23T21:28:20.627Z,14.70
2017-10-23T21:30:48.915Z,14.70
2017-10-23T21:33:17.199Z,14.70
2017-10-23T21:35:47.026Z,14.70
2017-10-23T21:38:15.307Z,14.80
2017-10-23T21:40:43.599Z,14.70
2017-10-23T21:43:13.436Z,14.60
2017-10-23T21:45:43.222Z,14.60
2017-10-23T21:48:11.506Z,14.70
2017-10-23T21:50:39.838Z,14.70
2017-10-23T21:53:08.119Z,14.70
2017-10-23T21:55:36.413Z,14.70
2017-10-23T21:58:04.735Z,14.70
2017-10-23T22:00:33.027Z,14.70
2017-10-23T22:03:02.087Z,14.60
2017-10-23T22:08:00.334Z,14.60
2017-10-23T22:10:29.764Z,14.60
2017-10-23T22:12:58.488Z,14.60
2017-10-23T22:15:27.911Z,14.60
2017-10-23T22:17:56.590Z,14.70
2017-10-23T22:20:24.926Z,14.70
2017-10-23T22:22:53.975Z,14.70
2017-10-23T22:25:23.031Z,14.70
2017-10-23T22:27:51.383Z,14.60
2017-10-23T22:30:20.427Z,14.50
2017-10-23T22:32:49.480Z,14.60
2017-10-23T22:35:17.815Z,14.60
2017-10-23T22:37:46.859Z,14.60
2017-10-23T22:40:16.270Z,14.60
2017-10-23T22:45:14.885Z,14.60
2017-10-23T22:50:14.230Z,14.50
2017-10-23T22:52:42.511Z,14.50
2017-10-23T22:55:10.782Z,14.50
2017-10-23T22:57:39.871Z,14.40
2017-10-23T23:00:08.551Z,14.40
2017-10-23T23:02:36.830Z,14.40
2017-10-23T23:05:05.942Z,14.50
2017-10-23T23:07:34.988Z,14.40
2017-10-23T23:10:03.268Z,14.40
2017-10-23T23:12:32.357Z,14.40
2017-10-23T23:15:01.404Z,14.30
2017-10-23T23:17:30.456Z,14.40
2017-10-23T23:19:58.786Z,14.40
2017-10-23T23:22:28.195Z,14.40
2017-10-23T23:24:56.477Z,14.30
2017-10-23T23:27:24.802Z,14.30
2017-10-23T23:29:53.079Z,14.40
2017-10-23T23:32:22.119Z,14.30
2017-10-23T23:34:50.439Z,14.30
2017-10-23T23:37:18.723Z,14.20
2017-10-23T23:39:47.003Z,14.20
2017-10-23T23:44:44.810Z,14.20
2017-10-23T23:47:13.090Z,14.20
2017-10-23T23:49:41.406Z,14.30
2017-10-23T23:52:09.683Z,14.30
2017-10-23T23:54:37.959Z,14.40
2017-10-23T23:57:06.274Z,14.40
